Vails Gate, New York
Current Conditions -  °F | °C
As of 7:45 PM on Saturday 22 Nov 2014 (Local Time) from KSWF Reporting Station
Overcast Overcast  
Wind Chill: 33°   Ceiling: 3500
Heat Index: 41°   Visibility: 10mi
Dew Point: 16°   Wind: 14mph
Humidity: 36%   Direction: 260°W
Pressure: 30.18"   Gusts: NA
Location:  41.46°N, 74.05°W
Report Text: KSWF 230045Z 26012KT 10SM OVC035 05/M09 A3018
Loading
Personal Weather Stations






























Interactive Weather Map New forecast layout! Learn more

10-Day Weather Forecast

Advertisements
Track Severe Weather on mobile